Time;durP1;ratioP1;P1;durP2;ratioP2;P2;SDS_P1;SDS_P2;PMS_P1;PMS_P2;Temp;Humidity;BMP_temperature;BMP_pressure;BME280_temperature;BME280_humidity;BME280_pressure;Samples;Min_cycle;Max_cycle;Signal;HPM_P1;HPM_P2
2022/07/17 00:02:29;;;;;;;4.32;1.42;;;;;;;15.68;86.95;102590.53;5217766;28;20057;-75
2022/07/17 00:05:00;;;;;;;5.38;2.00;;;;;;;15.67;87.74;102601.19;5204247;28;20097;-75
2022/07/17 00:07:32;;;;;;;5.25;2.00;;;;;;;15.64;87.18;102598.75;5216760;28;20386;-76
2022/07/17 00:10:04;;;;;;;4.72;1.63;;;;;;;15.55;88.64;102595.88;5217796;28;20036;-75
2022/07/17 00:12:35;;;;;;;4.57;1.85;;;;;;;15.50;88.25;102595.41;5207731;28;20042;-75
2022/07/17 00:15:07;;;;;;;5.88;1.80;;;;;;;15.47;89.27;102605.38;5215110;28;20053;-75
2022/07/17 00:17:38;;;;;;;3.50;1.25;;;;;;;15.38;91.09;102604.28;5217636;28;20495;-75
2022/07/17 00:20:11;;;;;;;6.00;1.85;;;;;;;15.20;93.68;102603.88;5216597;28;20040;-74
2022/07/17 00:22:43;;;;;;;5.70;1.83;;;;;;;15.18;93.40;102605.78;5216218;28;20450;-75
2022/07/17 00:25:14;;;;;;;3.33;1.55;;;;;;;15.12;93.75;102613.38;5216377;28;20080;-75
2022/07/17 00:27:45;;;;;;;5.57;2.28;;;;;;;15.16;93.14;102606.88;5215766;28;20030;-75
2022/07/17 00:30:17;;;;;;;5.32;1.55;;;;;;;15.12;91.85;102601.00;5214932;28;20038;-75
2022/07/17 00:32:48;;;;;;;4.10;1.30;;;;;;;15.09;92.04;102594.16;5206339;28;20372;-75
2022/07/17 00:35:19;;;;;;;5.53;2.13;;;;;;;15.07;92.75;102596.03;5215296;28;20041;-75
2022/07/17 00:37:51;;;;;;;4.30;1.80;;;;;;;14.96;94.06;102600.47;5207643;28;20040;-75
2022/07/17 00:40:24;;;;;;;7.50;1.83;;;;;;;14.92;95.16;102601.66;5206076;28;20115;-75
2022/07/17 00:42:55;;;;;;;6.10;2.10;;;;;;;15.06;92.57;102604.94;5216833;28;20021;-75
2022/07/17 00:45:27;;;;;;;4.22;1.45;;;;;;;14.91;95.06;102603.44;5215089;28;20040;-74
2022/07/17 00:48:04;;;;;;;6.40;1.95;;;;;;;14.96;95.77;102600.47;5216322;28;20112;-74
2022/07/17 00:50:38;;;;;;;9.95;2.03;;;;;;;14.74;96.84;102606.53;5215402;28;20065;-75
2022/07/17 00:53:10;;;;;;;5.40;2.15;;;;;;;14.66;97.73;102607.09;5215583;28;20570;-74
2022/07/17 00:55:42;;;;;;;6.15;1.88;;;;;;;14.74;96.01;102602.09;5215321;28;20030;-74
2022/07/17 00:58:24;;;;;;;5.85;2.00;;;;;;;14.81;97.19;102602.44;5215620;28;20026;-75
2022/07/17 01:00:56;;;;;;;7.33;1.83;;;;;;;14.73;96.11;102604.81;5215873;28;20116;-75
2022/07/17 01:03:27;;;;;;;6.88;2.13;;;;;;;14.54;99.75;102600.91;5216527;28;20036;-75
2022/07/17 01:05:58;;;;;;;8.32;2.28;;;;;;;14.55;98.78;102592.06;5214521;28;20525;-74
2022/07/17 01:08:31;;;;;;;5.32;1.98;;;;;;;14.50;99.04;102593.34;5215174;28;20111;-74
2022/07/17 01:11:04;;;;;;;4.20;2.22;;;;;;;14.39;100.00;102593.25;5216288;28;20053;-75
2022/07/17 01:13:35;;;;;;;6.63;2.43;;;;;;;14.40;98.99;102597.59;5215736;28;20061;-75
2022/07/17 01:16:07;;;;;;;5.97;2.60;;;;;;;14.34;99.50;102594.44;5213105;28;20125;-75
2022/07/17 01:18:41;;;;;;;5.95;1.77;;;;;;;14.39;98.89;102588.81;5215367;28;20038;-74
2022/07/17 01:21:12;;;;;;;7.55;2.35;;;;;;;14.30;99.56;102597.41;5216042;28;20022;-74
2022/07/17 01:23:43;;;;;;;4.60;2.08;;;;;;;14.22;100.00;102597.13;5204965;28;20033;-74
2022/07/17 01:26:15;;;;;;;5.20;2.30;;;;;;;14.31;97.99;102596.44;5213724;28;20033;-74
2022/07/17 01:28:46;;;;;;;7.38;2.10;;;;;;;14.28;98.33;102594.03;5205759;28;20439;-74
2022/07/17 01:31:17;;;;;;;4.15;2.00;;;;;;;14.20;99.57;102591.94;5213483;28;20352;-75
2022/07/17 01:33:49;;;;;;;5.63;2.30;;;;;;;14.05;100.00;102593.91;5215762;28;20037;-74
2022/07/17 01:36:24;;;;;;;7.13;2.38;;;;;;;14.18;100.00;102585.97;5213835;28;20107;-75
2022/07/17 01:38:56;;;;;;;7.38;2.50;;;;;;;14.03;100.00;102582.63;5201838;28;20117;-75
2022/07/17 01:41:27;;;;;;;6.43;2.00;;;;;;;13.99;100.00;102580.34;5215206;28;20346;-75
2022/07/17 01:43:59;;;;;;;7.15;2.30;;;;;;;14.01;100.00;102584.53;5215692;28;20018;-75
2022/07/17 01:46:30;;;;;;;5.95;2.45;;;;;;;14.01;100.00;102578.41;5214448;28;20044;-75
2022/07/17 01:49:02;;;;;;;5.57;2.10;;;;;;;13.98;100.00;102591.81;5200597;28;20061;-75
2022/07/17 01:51:33;;;;;;;4.97;2.30;;;;;;;13.85;100.00;102597.94;5215928;28;20543;-75
2022/07/17 01:54:04;;;;;;;5.25;2.10;;;;;;;13.84;100.00;102588.38;5213785;28;20034;-75
2022/07/17 01:56:36;;;;;;;8.23;2.35;;;;;;;13.87;100.00;102587.31;5202110;28;20100;-75
2022/07/17 01:59:07;;;;;;;6.18;2.20;;;;;;;13.85;100.00;102600.59;5214287;28;20040;-75
2022/07/17 02:01:39;;;;;;;7.18;2.42;;;;;;;13.77;100.00;102597.66;5205090;28;20092;-75
2022/07/17 02:04:10;;;;;;;6.68;2.33;;;;;;;13.74;100.00;102603.13;5200452;28;20026;-75
2022/07/17 02:06:41;;;;;;;6.13;2.15;;;;;;;13.74;100.00;102603.13;5201788;28;20052;-75
2022/07/17 02:09:12;;;;;;;5.90;2.17;;;;;;;13.69;100.00;102604.41;5215079;28;20364;-75
2022/07/17 02:11:44;;;;;;;4.50;2.05;;;;;;;13.62;100.00;102598.72;5214565;28;20022;-75
2022/07/17 02:14:15;;;;;;;4.65;1.90;;;;;;;13.57;100.00;102592.94;5212917;28;20021;-75
2022/07/17 02:16:47;;;;;;;4.28;2.15;;;;;;;13.48;100.00;102594.41;5213323;28;20093;-75
2022/07/17 02:19:18;;;;;;;4.07;2.30;;;;;;;13.38;100.00;102591.59;5214343;28;20025;-75
2022/07/17 02:21:50;;;;;;;6.72;2.22;;;;;;;13.47;100.00;102595.38;5215338;28;20042;-75
2022/07/17 02:24:21;;;;;;;6.13;2.15;;;;;;;13.53;100.00;102600.22;5212060;28;20030;-75
2022/07/17 02:26:52;;;;;;;4.28;2.08;;;;;;;13.54;100.00;102607.16;5205356;28;20092;-74
2022/07/17 02:29:24;;;;;;;7.75;2.25;;;;;;;13.43;100.00;102606.22;5214720;28;20026;-75
2022/07/17 02:31:55;;;;;;;6.80;2.40;;;;;;;13.37;100.00;102584.66;5214676;28;20068;-75
2022/07/17 02:34:26;;;;;;;4.78;2.35;;;;;;;13.36;100.00;102597.91;5213452;28;20022;-75
2022/07/17 02:36:58;;;;;;;7.22;2.20;;;;;;;13.48;100.00;102599.69;5214296;28;20046;-75
2022/07/17 02:39:29;;;;;;;10.82;3.05;;;;;;;13.41;100.00;102602.84;5214615;28;20033;-75
2022/07/17 02:42:00;;;;;;;5.13;2.35;;;;;;;13.33;100.00;102591.06;5201911;28;20530;-74
2022/07/17 02:44:33;;;;;;;7.88;2.22;;;;;;;13.30;100.00;102582.53;5213646;28;20496;-75
2022/07/17 02:47:04;;;;;;;8.65;2.50;;;;;;;13.30;100.00;102570.22;5221372;28;20029;-75
2022/07/17 02:49:35;;;;;;;9.70;2.63;;;;;;;13.29;100.00;102580.84;5220632;28;20025;-75
2022/07/17 02:52:07;;;;;;;6.03;2.25;;;;;;;13.25;100.00;102582.84;5220947;28;20018;-75
2022/07/17 02:54:38;;;;;;;5.35;2.15;;;;;;;13.27;100.00;102582.75;5221247;28;20037;-74
2022/07/17 02:57:09;;;;;;;7.97;2.60;;;;;;;13.21;100.00;102572.59;5220765;28;20495;-74
2022/07/17 02:59:41;;;;;;;5.43;2.20;;;;;;;13.24;100.00;102575.91;5220306;28;20087;-74
2022/07/17 03:02:12;;;;;;;4.63;2.00;;;;;;;13.25;100.00;102577.56;5219142;28;20030;-75
2022/07/17 03:04:44;;;;;;;8.48;2.22;;;;;;;13.18;100.00;102585.97;5220489;28;20084;-75
2022/07/17 03:07:15;;;;;;;7.32;2.95;;;;;;;13.06;100.00;102593.75;5220630;28;20054;-74
2022/07/17 03:09:46;;;;;;;5.43;2.15;;;;;;;13.07;100.00;102587.56;5220434;28;20425;-75
2022/07/17 03:12:18;;;;;;;7.45;2.20;;;;;;;13.09;100.00;102596.16;5219175;28;20529;-74
2022/07/17 03:14:49;;;;;;;9.23;2.38;;;;;;;13.06;100.00;102601.63;5220771;28;20124;-75
2022/07/17 03:17:20;;;;;;;4.60;2.33;;;;;;;13.02;100.00;102610.69;5221023;28;20553;-74
2022/07/17 03:19:52;;;;;;;4.93;2.25;;;;;;;13.00;100.00;102609.13;5220223;28;20360;-74
2022/07/17 03:22:23;;;;;;;5.00;2.35;;;;;;;12.91;100.00;102611.38;5221135;28;20028;-74
2022/07/17 03:24:54;;;;;;;5.50;2.25;;;;;;;12.93;100.00;102618.34;5219610;28;20068;-75
2022/07/17 03:27:26;;;;;;;10.15;2.63;;;;;;;12.79;100.00;102593.78;5220780;28;20028;-74
2022/07/17 03:29:57;;;;;;;5.18;2.20;;;;;;;12.83;100.00;102603.16;5219988;28;20030;-74
2022/07/17 03:32:28;;;;;;;7.68;2.35;;;;;;;12.80;100.00;102598.09;5220431;28;20712;-74
2022/07/17 03:35:01;;;;;;;5.68;2.13;;;;;;;12.78;100.00;102600.00;5220155;28;20029;-75
2022/07/17 03:37:32;;;;;;;5.50;2.30;;;;;;;12.80;100.00;102595.47;5220878;28;20050;-74
2022/07/17 03:40:06;;;;;;;7.05;2.45;;;;;;;12.84;100.00;102604.00;5219960;28;20040;-75
2022/07/17 03:42:37;;;;;;;5.43;2.85;;;;;;;12.79;100.00;102592.97;5212092;28;20137;-74
2022/07/17 03:45:09;;;;;;;5.13;2.33;;;;;;;12.83;100.00;102599.69;5218732;28;20072;-74
2022/07/17 03:47:40;;;;;;;8.02;2.10;;;;;;;12.81;100.00;102598.97;5220570;28;20403;-74
2022/07/17 03:50:11;;;;;;;4.05;2.30;;;;;;;12.78;100.00;102601.81;5209944;28;20435;-75
2022/07/17 03:52:43;;;;;;;6.38;2.17;;;;;;;12.79;100.00;102600.84;5220472;28;20029;-75
2022/07/17 03:55:14;;;;;;;7.07;2.40;;;;;;;12.79;100.00;102604.31;5218287;28;20088;-74
2022/07/17 03:57:45;;;;;;;3.92;2.20;;;;;;;12.70;100.00;102593.56;5206847;28;20034;-74
2022/07/17 04:00:17;;;;;;;3.85;2.35;;;;;;;12.63;100.00;102601.84;5216908;28;20030;-74
2022/07/17 04:02:49;;;;;;;5.88;2.75;;;;;;;12.60;100.00;102603.84;5218037;28;20391;-74
2022/07/17 04:05:20;;;;;;;4.28;2.60;;;;;;;12.64;100.00;102613.22;5215313;28;20052;-75
2022/07/17 04:07:52;;;;;;;6.75;2.63;;;;;;;12.64;100.00;102613.22;5215228;28;20156;-74
2022/07/17 04:10:23;;;;;;;6.20;2.38;;;;;;;12.58;100.00;102611.84;5217478;28;20468;-74
2022/07/17 04:12:54;;;;;;;6.40;2.88;;;;;;;12.57;100.00;102615.41;5215388;28;20034;-74
2022/07/17 04:18:16;;;;;;;5.32;2.40;;;;;;;12.57;100.00;102617.19;5216950;28;20037;-74
2022/07/17 04:20:49;;;;;;;5.10;2.03;;;;;;;12.53;100.00;102620.97;5215111;28;20026;-75
2022/07/17 04:23:20;;;;;;;9.45;2.70;;;;;;;12.49;100.00;102627.34;5216482;28;20022;-75
2022/07/17 04:25:52;;;;;;;9.48;2.70;;;;;;;12.54;100.00;102623.50;5215757;28;20052;-74
2022/07/17 04:28:23;;;;;;;7.70;3.33;;;;;;;12.55;100.00;102622.56;5214741;28;20037;-75
2022/07/17 04:30:55;;;;;;;5.57;2.72;;;;;;;12.64;100.00;102621.94;5216680;28;20028;-74
2022/07/17 04:33:26;;;;;;;8.55;3.33;;;;;;;12.69;100.00;102624.31;5216337;28;20061;-74
2022/07/17 04:35:58;;;;;;;10.70;2.80;;;;;;;12.72;100.00;102626.69;5216516;28;20045;-75
2022/07/17 04:38:29;;;;;;;8.40;2.88;;;;;;;12.69;100.00;102629.56;5216123;28;20046;-74
2022/07/17 04:41:00;;;;;;;8.10;2.78;;;;;;;12.76;100.00;102612.41;5216661;28;20088;-75
2022/07/17 04:43:32;;;;;;;9.68;2.60;;;;;;;12.81;100.00;102610.34;5215168;28;20026;-74
2022/07/17 04:46:03;;;;;;;14.30;3.70;;;;;;;12.83;100.00;102616.31;5215640;28;20033;-74
2022/07/17 04:48:34;;;;;;;10.50;3.20;;;;;;;12.84;100.00;102601.38;5217227;28;20030;-74
2022/07/17 04:51:07;;;;;;;8.95;2.55;;;;;;;12.98;100.00;102627.63;5216225;28;20014;-75
2022/07/17 04:53:38;;;;;;;14.77;3.28;;;;;;;13.03;100.00;102630.81;5214651;28;20344;-74
2022/07/17 04:56:10;;;;;;;10.25;3.63;;;;;;;13.04;100.00;102629.00;5214667;28;20087;-75
2022/07/17 04:58:41;;;;;;;10.45;3.10;;;;;;;13.09;100.00;102630.38;5203964;28;20022;-74
2022/07/17 05:01:12;;;;;;;7.55;3.40;;;;;;;13.20;100.00;102634.91;5205305;28;20519;-74
2022/07/17 05:03:44;;;;;;;12.40;3.90;;;;;;;13.31;100.00;102645.59;5204334;28;20132;-74
2022/07/17 05:06:15;;;;;;;9.40;3.33;;;;;;;13.30;100.00;102643.94;5215767;28;20041;-74
2022/07/17 05:08:46;;;;;;;7.82;2.80;;;;;;;13.34;100.00;102636.66;5215724;28;20029;-74
2022/07/17 05:11:18;;;;;;;9.27;2.88;;;;;;;13.37;100.00;102639.94;5216388;28;20526;-74
2022/07/17 05:13:49;;;;;;;10.57;3.08;;;;;;;13.44;100.00;102635.06;5200404;28;20109;-74
2022/07/17 05:16:20;;;;;;;6.10;3.15;;;;;;;13.45;100.00;102630.63;5215470;28;20409;-74
2022/07/17 05:18:52;;;;;;;7.55;3.10;;;;;;;13.52;100.00;102631.91;5215758;28;20030;-74
2022/07/17 05:21:23;;;;;;;10.52;3.35;;;;;;;13.61;100.00;102623.38;5215912;28;20042;-74
2022/07/17 05:23:54;;;;;;;7.00;3.00;;;;;;;13.68;100.00;102619.38;5205520;28;20041;-74
2022/07/17 05:26:26;;;;;;;8.73;3.10;;;;;;;13.78;100.00;102625.69;5213109;28;20030;-74
2022/07/17 05:28:57;;;;;;;8.98;3.28;;;;;;;13.83;100.00;102631.47;5215383;28;20045;-74
2022/07/17 05:31:28;;;;;;;7.53;3.38;;;;;;;13.92;100.00;102632.63;5216020;28;20108;-74
2022/07/17 05:34:00;;;;;;;4.60;2.70;;;;;;;14.03;100.00;102629.22;5215154;28;20499;-74
2022/07/17 05:36:31;;;;;;;7.47;2.88;;;;;;;14.14;100.00;102633.75;5204136;28;20050;-75
2022/07/17 05:39:02;;;;;;;6.45;3.05;;;;;;;14.23;100.00;102635.72;5215525;28;20086;-75
2022/07/17 05:41:34;;;;;;;4.57;2.88;;;;;;;14.31;100.00;102631.56;5215357;28;20087;-74
2022/07/17 05:44:05;;;;;;;5.18;2.47;;;;;;;14.38;100.00;102631.13;5214359;28;20030;-74
2022/07/17 05:46:37;;;;;;;6.72;2.97;;;;;;;14.46;100.00;102626.97;5214882;28;20047;-74
2022/07/17 05:49:08;;;;;;;7.07;2.67;;;;;;;14.49;100.00;102623.28;5207509;28;20029;-74
2022/07/17 05:51:39;;;;;;;8.10;2.85;;;;;;;14.59;100.00;102630.44;5214897;28;20425;-74
2022/07/17 05:54:11;;;;;;;6.47;2.65;;;;;;;14.69;100.00;102632.38;5199189;28;20394;-75
2022/07/17 05:56:42;;;;;;;7.13;3.47;;;;;;;14.75;100.00;102629.31;5213768;28;20160;-74
2022/07/17 05:59:13;;;;;;;9.85;3.67;;;;;;;14.79;100.00;102617.56;5214238;28;20112;-75
2022/07/17 06:01:44;;;;;;;6.75;2.88;;;;;;;14.88;100.00;102622.16;5214146;28;20044;-75
2022/07/17 06:04:16;;;;;;;10.68;3.28;;;;;;;14.92;100.00;102626.25;5212998;28;20021;-76
2022/07/17 06:06:47;;;;;;;8.75;3.83;;;;;;;15.04;100.00;102613.94;5196026;28;20033;-76
2022/07/17 06:09:18;;;;;;;9.48;3.60;;;;;;;15.12;100.00;102611.56;5214560;28;20084;-76
2022/07/17 06:11:50;;;;;;;9.07;3.15;;;;;;;15.27;100.00;102602.47;5213616;28;20395;-76
2022/07/17 06:14:21;;;;;;;6.82;3.72;;;;;;;15.32;100.00;102596.81;5213218;28;20034;-75
2022/07/17 06:16:52;;;;;;;8.38;3.60;;;;;;;15.43;100.00;102601.28;5214354;28;20021;-75
2022/07/17 06:19:24;;;;;;;6.60;3.58;;;;;;;15.52;100.00;102604.03;5200946;28;20368;-75
2022/07/17 06:21:55;;;;;;;6.55;3.92;;;;;;;15.70;100.00;102596.50;5214820;28;20084;-75
2022/07/17 06:24:26;;;;;;;7.82;3.42;;;;;;;15.87;100.00;102599.59;5213052;28;20057;-75
2022/07/17 06:26:57;;;;;;;9.18;4.05;;;;;;;15.95;100.00;102597.22;5213136;28;20032;-75
2022/07/17 06:29:29;;;;;;;8.20;3.50;;;;;;;16.06;98.68;102605.09;5214020;28;20178;-75
2022/07/17 06:32:00;;;;;;;6.18;3.85;;;;;;;16.14;97.26;102604.50;5214896;28;20034;-75
2022/07/17 06:34:31;;;;;;;7.55;4.28;;;;;;;16.34;98.48;102624.06;5204780;28;20125;-74
2022/07/17 06:37:03;;;;;;;7.45;3.63;;;;;;;16.47;96.61;102627.38;5212559;28;21775;-73
2022/07/17 06:39:34;;;;;;;6.65;3.70;;;;;;;16.68;95.00;102622.16;5215068;28;20025;-73
2022/07/17 06:42:05;;;;;;;7.47;3.42;;;;;;;16.75;92.59;102629.47;5214970;28;20014;-73
2022/07/17 06:44:37;;;;;;;7.00;3.45;;;;;;;16.85;90.66;102645.41;5213445;28;20033;-73
2022/07/17 06:47:08;;;;;;;8.80;3.65;;;;;;;16.90;92.67;102647.72;5211151;28;20292;-75
2022/07/17 06:49:43;;;;;;;7.35;4.00;;;;;;;17.04;91.46;102636.78;5201545;28;20053;-75
2022/07/17 06:52:14;;;;;;;6.22;3.70;;;;;;;17.16;88.98;102654.31;5213551;28;20057;-75
2022/07/17 06:54:46;;;;;;;6.13;3.67;;;;;;;17.42;89.91;102640.66;5209377;28;20534;-75
2022/07/17 06:57:17;;;;;;;7.05;3.47;;;;;;;17.50;85.90;102640.81;5209695;28;20018;-75
2022/07/17 06:59:48;;;;;;;5.65;3.22;;;;;;;17.71;85.59;102654.88;5211512;28;20053;-75
2022/07/17 07:02:20;;;;;;;8.43;3.83;;;;;;;17.96;83.92;102653.63;5212408;28;20816;-75
2022/07/17 07:04:51;;;;;;;8.30;3.70;;;;;;;17.92;81.09;102654.88;5212077;28;20099;-75
2022/07/17 07:07:22;;;;;;;8.65;4.00;;;;;;;18.04;82.65;102655.63;5211330;28;20030;-75
2022/07/17 07:09:53;;;;;;;7.53;3.80;;;;;;;18.19;83.33;102661.38;5213017;28;20060;-75
2022/07/17 07:12:25;;;;;;;12.45;4.82;;;;;;;18.22;83.71;102669.03;5214163;28;20451;-75
2022/07/17 07:14:56;;;;;;;8.00;3.70;;;;;;;18.37;82.78;102674.81;5212544;28;20026;-75
2022/07/17 07:17:27;;;;;;;6.20;3.42;;;;;;;18.57;81.54;102676.53;5211126;28;20033;-75
2022/07/17 07:19:59;;;;;;;6.70;3.80;;;;;;;18.54;79.61;102676.81;5212321;28;20037;-72
2022/07/17 07:22:31;;;;;;;7.50;3.43;;;;;;;18.71;76.77;102668.22;5203258;28;20168;-74
2022/07/17 07:25:04;;;;;;;7.68;3.97;;;;;;;18.92;77.91;102667.22;5205218;28;20041;-74
2022/07/17 07:27:35;;;;;;;8.32;3.47;;;;;;;19.00;72.70;102647.91;5212943;28;20038;-74
2022/07/17 07:30:09;;;;;;;7.55;2.58;;;;;;;19.09;71.09;102669.19;5213394;28;20101;-74
2022/07/17 07:32:40;;;;;;;6.60;2.95;;;;;;;19.36;71.45;102660.44;5211774;28;20034;-74
2022/07/17 07:35:12;;;;;;;7.35;2.63;;;;;;;19.41;68.03;102658.19;5214928;28;20475;-74
2022/07/17 07:37:43;;;;;;;6.93;2.60;;;;;;;19.51;65.82;102662.63;5215386;28;20095;-74
2022/07/17 07:40:15;;;;;;;5.68;2.38;;;;;;;19.45;61.27;102658.75;5215935;28;20080;-74
2022/07/17 07:42:46;;;;;;;5.45;1.83;;;;;;;19.75;61.22;102664.84;5214928;28;20036;-74
2022/07/17 07:45:17;;;;;;;7.15;2.40;;;;;;;19.84;64.50;102663.94;5205163;28;20434;-74
2022/07/17 07:47:50;;;;;;;6.07;1.65;;;;;;;19.93;59.90;102661.25;5208935;28;20076;-74
2022/07/17 07:50:23;;;;;;;6.90;2.30;;;;;;;20.07;59.79;102667.06;5207423;28;20056;-75
2022/07/17 07:52:55;;;;;;;7.90;2.15;;;;;;;20.15;59.91;102665.34;5214732;28;20040;-73
2022/07/17 07:55:26;;;;;;;3.93;1.80;;;;;;;20.29;56.84;102671.97;5204180;28;20030;-74
2022/07/17 07:58:06;;;;;;;6.93;2.13;;;;;;;20.50;62.28;102668.25;5215434;28;20013;-74
2022/07/17 08:00:38;;;;;;;6.50;2.40;;;;;;;20.42;59.98;102676.94;5217218;28;20115;-74
2022/07/17 08:03:10;;;;;;;6.43;2.58;;;;;;;20.78;61.02;102669.00;5215410;28;20025;-75
2022/07/17 08:05:41;;;;;;;7.60;2.90;;;;;;;20.53;57.87;102667.91;5216114;28;20510;-74
2022/07/17 08:08:13;;;;;;;4.10;2.10;;;;;;;20.70;54.82;102666.25;5216017;28;20566;-74
2022/07/17 08:10:44;;;;;;;5.23;2.43;;;;;;;20.79;58.38;102670.66;5215641;28;20058;-74
2022/07/17 08:13:16;;;;;;;4.23;2.23;;;;;;;20.92;57.24;102678.28;5217125;28;20029;-74
2022/07/17 08:15:48;;;;;;;6.07;2.33;;;;;;;21.00;56.17;102673.84;5217481;28;20502;-74
2022/07/17 08:18:20;;;;;;;8.90;2.60;;;;;;;21.16;57.37;102683.78;5216368;28;20033;-73
2022/07/17 08:20:52;;;;;;;7.07;2.17;;;;;;;21.43;56.03;102677.50;5214596;28;20552;-73
2022/07/17 08:23:23;;;;;;;6.30;2.55;;;;;;;21.19;51.35;102674.66;5213470;28;20127;-72
2022/07/17 08:25:55;;;;;;;9.20;1.80;;;;;;;21.48;54.16;102680.56;5217283;28;20111;-71
2022/07/17 08:28:26;;;;;;;6.23;2.37;;;;;;;21.64;54.35;102671.81;5215600;28;20061;-72
2022/07/17 08:30:57;;;;;;;4.97;1.67;;;;;;;21.67;53.90;102674.16;5210690;28;20032;-71
2022/07/17 08:33:29;;;;;;;6.17;2.20;;;;;;;21.81;53.64;102676.22;5211258;28;20052;-72
2022/07/17 08:36:00;;;;;;;5.87;1.87;;;;;;;21.96;51.67;102681.78;5212452;28;20050;-71
2022/07/17 08:38:31;;;;;;;5.80;1.60;;;;;;;22.02;52.95;102672.31;5212931;28;20108;-73
2022/07/17 08:41:04;;;;;;;5.77;1.83;;;;;;;22.16;50.43;102676.22;5214864;28;20104;-75
2022/07/17 08:43:35;;;;;;;;;;;;;;;22.90;50.93;102671.84;5213226;28;20392;-75
2022/07/17 08:46:10;;;;;;;5.88;1.83;;;;;;;22.51;49.92;102662.63;5211032;28;20016;-75
2022/07/17 08:48:43;;;;;;;7.25;2.30;;;;;;;22.43;49.09;102653.78;5210765;28;20108;-75
2022/07/17 08:51:16;;;;;;;5.82;2.05;;;;;;;22.48;50.41;102670.97;5213488;28;20391;-75
2022/07/17 08:53:47;;;;;;;5.80;2.58;;;;;;;22.49;50.03;102667.28;5194805;28;20030;-75
2022/07/17 08:56:20;;;;;;;5.70;1.80;;;;;;;22.69;49.49;102669.66;5215289;28;20021;-75
2022/07/17 08:58:51;;;;;;;5.10;1.70;;;;;;;22.65;46.29;102668.31;5214867;28;20072;-75
2022/07/17 09:01:23;;;;;;;4.67;1.83;;;;;;;22.69;44.33;102669.66;5213919;28;20026;-75
2022/07/17 09:04:05;;;;;;;4.90;1.80;;;;;;;22.72;47.02;102669.31;5214581;28;20029;-75
2022/07/17 09:06:36;;;;;;;5.88;1.60;;;;;;;22.77;48.00;102667.84;5214873;28;20480;-75
2022/07/17 09:09:10;;;;;;;3.63;1.57;;;;;;;23.13;45.84;102666.69;5213768;28;20040;-75
2022/07/17 09:11:44;;;;;;;5.60;1.83;;;;;;;22.88;47.61;102669.34;5214449;28;20033;-75
2022/07/17 09:14:18;;;;;;;6.15;2.00;;;;;;;23.14;47.17;102663.81;5214988;28;20494;-75
2022/07/17 09:17:01;;;;;;;6.05;2.03;;;;;;;23.39;47.53;102659.28;5212526;28;20022;-74
2022/07/17 09:19:39;;;;;;;3.92;1.60;;;;;;;23.19;44.30;102652.66;5216674;28;20061;-73
2022/07/17 09:22:21;;;;;;;5.07;1.58;;;;;;;23.47;45.05;102659.25;5213716;28;20052;-73
2022/07/17 09:24:55;;;;;;;3.80;1.42;;;;;;;23.46;44.37;102668.31;5212382;28;20109;-74
2022/07/17 09:27:26;;;;;;;4.00;1.73;;;;;;;23.63;45.18;102658.38;5212713;28;20033;-74
2022/07/17 09:30:09;;;;;;;5.73;2.00;;;;;;;23.92;44.78;102654.28;5204466;28;20479;-73
2022/07/17 09:32:41;;;;;;;3.20;1.73;;;;;;;23.92;42.84;102657.78;5212954;28;20033;-73
2022/07/17 09:35:13;;;;;;;3.60;1.50;;;;;;;23.93;43.53;102658.63;5214497;28;20429;-74
2022/07/17 09:37:44;;;;;;;5.73;1.77;;;;;;;23.99;42.15;102658.78;5209415;28;20063;-74
2022/07/17 09:41:09;;;;;;;3.83;1.30;;;;;;;24.10;40.22;102657.53;5215562;28;20036;-74
2022/07/17 09:43:08;;;;;;;4.80;1.60;;;;;;;24.24;40.69;102655.94;5211881;28;20128;-74
2022/07/17 09:45:39;;;;;;;;;;;;;;;24.98;41.61;102661.63;5210012;28;20029;-74
2022/07/17 09:48:11;;;;;;;3.85;1.60;;;;;;;24.26;39.44;102653.94;5211576;28;19921;-74
2022/07/17 09:50:43;;;;;;;2.70;1.17;;;;;;;24.17;37.71;102649.63;5195865;28;20018;-74
2022/07/17 09:53:18;;;;;;;5.27;1.50;;;;;;;24.39;39.91;102659.56;5212252;28;20037;-74
2022/07/17 09:55:56;;;;;;;5.30;1.50;;;;;;;24.50;38.70;102655.63;5195493;28;20030;-74
2022/07/17 09:58:27;;;;;;;5.28;1.45;;;;;;;24.66;36.92;102655.53;5211562;28;20026;-74
2022/07/17 10:00:59;;;;;;;5.17;1.60;;;;;;;24.85;38.04;102651.53;5213477;28;20026;-74
2022/07/17 10:03:30;;;;;;;6.03;1.50;;;;;;;24.74;36.80;102663.50;5215161;28;20406;-74
2022/07/17 10:06:02;;;;;;;5.30;1.30;;;;;;;24.86;38.04;102661.22;5214800;28;20782;-74
2022/07/17 10:08:35;;;;;;;4.33;1.60;;;;;;;24.95;36.25;102656.63;5213991;28;20082;-74
2022/07/17 10:11:08;;;;;;;3.97;1.33;;;;;;;24.87;36.04;102664.75;5214336;28;20109;-81
2022/07/17 10:13:43;;;;;;;3.08;1.30;;;;;;;24.78;34.68;102661.31;5214993;28;20030;-72
2022/07/17 10:16:26;;;;;;;4.35;1.90;;;;;;;24.88;36.77;102653.81;5213378;28;20026;-74
2022/07/17 10:19:00;;;;;;;4.97;1.30;;;;;;;25.12;36.74;102652.81;5215715;28;20029;-75
2022/07/17 10:21:32;;;;;;;2.72;1.00;;;;;;;25.02;36.18;102649.53;5215609;28;20109;-72
2022/07/17 10:24:03;;;;;;;3.83;1.60;;;;;;;25.16;35.46;102664.03;5215564;28;20434;-74
2022/07/17 10:26:43;;;;;;;4.20;1.42;;;;;;;25.24;36.55;102664.75;5212830;28;20073;-73
2022/07/17 10:29:28;;;;;;;6.65;1.65;;;;;;;25.29;35.99;102655.31;5214343;28;20133;-76
2022/07/17 10:32:02;;;;;;;5.20;1.55;;;;;;;25.04;34.95;102654.69;5215375;28;20029;-76
2022/07/17 10:35:12;;;;;;;2.60;1.30;;;;;;;25.50;38.54;102654.63;5215535;28;20025;-75
2022/07/17 10:37:44;;;;;;;4.25;1.60;;;;;;;25.41;35.39;102648.47;5204674;28;20111;-75
2022/07/17 10:40:23;;;;;;;4.07;1.17;;;;;;;25.77;37.34;102653.94;5214276;28;20034;-74
2022/07/17 10:42:56;;;;;;;5.85;1.50;;;;;;;25.88;35.88;102661.53;5213056;28;20084;-74
2022/07/17 10:45:27;;;;;;;5.15;1.98;;;;;;;25.92;35.93;102653.94;5214109;28;20026;-74
2022/07/17 10:48:00;;;;;;;2.80;1.40;;;;;;;25.85;35.54;102655.72;5213790;28;20082;-74
2022/07/17 10:50:38;;;;;;;3.78;1.40;;;;;;;26.03;34.31;102658.00;5215109;28;20057;-74
2022/07/17 10:53:20;;;;;;;4.68;1.65;;;;;;;26.20;34.22;102651.38;5215117;28;20030;-75
2022/07/17 10:56:04;;;;;;;3.70;1.37;;;;;;;26.14;32.94;102655.66;5214963;28;20037;-74
2022/07/17 10:58:39;;;;;;;3.80;1.38;;;;;;;26.18;34.74;102651.56;5213693;28;20370;-74
2022/07/17 11:01:12;;;;;;;4.30;1.83;;;;;;;26.14;34.33;102660.19;5215110;28;20061;-74
2022/07/17 11:03:49;;;;;;;5.68;1.75;;;;;;;26.23;34.22;102659.06;5215545;28;20033;-74
2022/07/17 11:06:32;;;;;;;2.58;1.40;;;;;;;26.22;35.29;102659.25;5213731;28;20029;-72
2022/07/17 11:09:05;;;;;;;;;;;;;;;26.99;34.67;102662.06;5218811;28;20034;-72
2022/07/17 11:11:45;;;;;;;4.72;1.75;;;;;;;26.16;34.69;102645.53;5206352;28;19913;-72
2022/07/17 11:14:18;;;;;;;6.47;2.25;;;;;;;26.05;35.29;102658.63;5219078;28;20026;-72
2022/07/17 11:17:00;;;;;;;3.63;1.48;;;;;;;26.20;37.04;102648.69;5217194;28;20072;-72
2022/07/17 11:19:42;;;;;;;4.47;1.70;;;;;;;26.28;36.68;102643.19;5216562;28;20036;-72
2022/07/17 11:22:13;;;;;;;5.15;1.30;;;;;;;26.26;35.84;102639.88;5203708;28;20962;-73
2022/07/17 11:24:48;;;;;;;7.33;1.60;;;;;;;26.40;36.79;102646.19;5215312;28;20021;-73
2022/07/17 11:27:22;;;;;;;3.20;1.40;;;;;;;26.40;36.88;102644.38;5214872;28;20024;-72
2022/07/17 11:29:57;;;;;;;5.30;1.60;;;;;;;26.40;35.50;102649.75;5217133;28;20048;-72
2022/07/17 11:32:39;;;;;;;3.85;1.58;;;;;;;26.52;36.41;102636.66;5216025;28;20018;-72
2022/07/17 11:35:18;;;;;;;3.55;1.25;;;;;;;26.68;35.25;102646.31;5216948;28;20036;-72
2022/07/17 11:37:50;;;;;;;5.25;1.52;;;;;;;26.76;34.54;102645.31;5204856;28;20072;-71
2022/07/17 11:40:22;;;;;;;3.63;1.27;;;;;;;26.96;35.27;102629.34;5216258;28;20030;-71
2022/07/17 11:43:00;;;;;;;5.35;1.73;;;;;;;27.30;33.08;102642.84;5214726;28;20487;-74
2022/07/17 11:45:32;;;;;;;4.60;1.55;;;;;;;27.24;31.20;102635.59;5215929;28;20042;-75
2022/07/17 11:48:05;;;;;;;3.60;1.20;;;;;;;27.25;31.13;102631.84;5215902;28;20026;-74
2022/07/17 11:50:37;;;;;;;3.30;1.50;;;;;;;27.33;31.44;102633.56;5215259;28;20025;-75